Time;durP1;ratioP1;P1;durP2;ratioP2;P2;SDS_P1;SDS_P2;PMS_P1;PMS_P2;Temp;Humidity;BMP_temperature;BMP_pressure;BME280_temperature;BME280_humidity;BME280_pressure;Samples;Min_cycle;Max_cycle;Signal;HPM_P1;HPM_P2
2021/10/19 00:00:59;;;;;;;29.75;15.00;;;;;;;6.02;70.88;100524.48;1773037;81;21227;-78
2021/10/19 00:04:07;;;;;;;22.73;13.83;;;;;;;6.00;70.96;100514.75;1773057;81;21189;-78
2021/10/19 00:07:13;;;;;;;26.10;13.78;;;;;;;6.01;71.09;100517.31;1774283;81;21311;-77
2021/10/19 00:10:19;;;;;;;28.02;15.20;;;;;;;6.00;71.31;100509.32;1772869;81;21871;-77
2021/10/19 00:13:25;;;;;;;27.82;15.15;;;;;;;6.03;71.43;100504.97;1772952;81;21338;-77
2021/10/19 00:16:29;;;;;;;27.10;16.00;;;;;;;6.04;71.58;100507.53;1772992;81;21787;-77
2021/10/19 00:19:37;;;;;;;21.75;14.00;;;;;;;6.04;71.69;100501.25;1773988;81;21212;-75
2021/10/19 00:22:43;;;;;;;31.57;15.50;;;;;;;6.04;71.67;100499.89;1774318;81;21160;-76
2021/10/19 00:25:48;;;;;;;24.63;15.08;;;;;;;6.06;71.65;100496.52;1774399;81;21302;-76
2021/10/19 00:28:54;;;;;;;29.52;14.07;;;;;;;6.06;71.55;100490.59;1774284;81;21818;-75
2021/10/19 00:31:59;;;;;;;27.27;15.30;;;;;;;6.05;71.45;100490.73;1772768;81;21330;-76
2021/10/19 00:35:05;;;;;;;24.15;15.15;;;;;;;6.02;71.38;100489.66;1772717;81;21778;-76
2021/10/19 00:38:11;;;;;;;40.83;15.20;;;;;;;5.95;71.47;100489.38;1773958;81;21176;-76
2021/10/19 00:41:17;;;;;;;29.52;15.32;;;;;;;5.89;71.66;100485.34;1772650;81;21283;-75
2021/10/19 00:44:23;;;;;;;28.17;15.72;;;;;;;5.82;71.90;100489.61;1772544;81;21278;-76
2021/10/19 00:47:29;;;;;;;23.52;13.90;;;;;;;5.78;72.14;100486.82;1772915;81;21266;-76
2021/10/19 00:50:35;;;;;;;32.33;16.67;;;;;;;5.77;72.34;100487.83;1773032;80;21892;-76
2021/10/19 00:53:42;;;;;;;27.95;15.18;;;;;;;5.76;72.53;100480.69;1772735;80;21238;-76
2021/10/19 00:56:48;;;;;;;29.72;16.10;;;;;;;5.79;72.65;100482.28;1772645;80;21203;-76
2021/10/19 00:59:54;;;;;;;27.25;15.30;;;;;;;5.79;72.67;100480.42;1774006;81;21267;-76
2021/10/19 01:03:00;;;;;;;30.75;15.63;;;;;;;5.81;72.72;100483.84;1774082;81;21136;-76
2021/10/19 01:06:08;;;;;;;31.17;15.18;;;;;;;5.82;72.77;100481.47;1774283;81;21802;-76
2021/10/19 01:09:15;;;;;;;30.25;15.35;;;;;;;5.86;72.85;100484.27;1773165;80;21156;-76
2021/10/19 01:12:21;;;;;;;32.00;15.05;;;;;;;5.88;72.93;100485.00;1772805;81;21923;-76
2021/10/19 01:15:26;;;;;;;29.32;16.32;;;;;;;5.91;73.02;100482.48;1774365;81;22360;-76
2021/10/19 01:18:32;;;;;;;29.60;15.08;;;;;;;5.95;73.06;100484.45;1774295;81;21827;-76
2021/10/19 01:21:38;;;;;;;30.77;15.43;;;;;;;5.98;73.04;100485.54;1773400;81;21271;-76
2021/10/19 01:24:44;;;;;;;34.25;15.05;;;;;;;6.00;73.00;100480.81;1774313;81;21700;-76
2021/10/19 01:28:01;;;;;;;31.23;16.02;;;;;;;6.02;72.91;100483.75;1774255;81;21806;-76
2021/10/19 01:31:07;;;;;;;29.50;16.55;;;;;;;6.04;72.84;100481.73;1774056;81;22438;-76
2021/10/19 01:34:14;;;;;;;34.67;16.50;;;;;;;6.06;72.82;100480.23;1772819;80;22538;-76
2021/10/19 01:37:19;;;;;;;35.33;15.78;;;;;;;6.07;72.75;100484.18;1774205;81;21216;-76
2021/10/19 01:40:25;;;;;;;34.43;16.70;;;;;;;6.09;72.82;100485.39;1774413;81;21796;-76
2021/10/19 01:43:32;;;;;;;31.10;15.95;;;;;;;6.11;72.87;100480.66;1774231;81;21278;-75
2021/10/19 01:46:37;;;;;;;27.82;15.80;;;;;;;6.13;72.84;100482.23;1774336;81;21268;-76
2021/10/19 01:49:43;;;;;;;36.68;17.07;;;;;;;6.14;72.81;100485.30;1774001;81;21368;-76
2021/10/19 01:52:49;;;;;;;32.80;16.52;;;;;;;6.17;72.85;100488.25;1772118;80;21306;-76
2021/10/19 01:55:54;;;;;;;27.48;15.85;;;;;;;6.17;72.82;100493.69;1772938;81;21279;-76
2021/10/19 01:59:00;;;;;;;29.90;15.60;;;;;;;6.15;72.86;100489.73;1774358;81;21283;-76
2021/10/19 02:02:05;;;;;;;25.97;15.50;;;;;;;6.12;72.98;100486.47;1772811;81;21199;-76
2021/10/19 02:05:11;;;;;;;28.92;16.73;;;;;;;6.12;73.17;100489.19;1773719;81;21861;-76
2021/10/19 02:08:16;;;;;;;27.75;16.00;;;;;;;6.12;73.30;100486.47;1774396;81;21897;-76
2021/10/19 02:11:22;;;;;;;29.23;15.58;;;;;;;6.14;73.42;100483.09;1774157;81;21306;-76
2021/10/19 02:14:28;;;;;;;31.87;15.35;;;;;;;6.17;73.44;100490.97;1774351;81;21275;-76
2021/10/19 02:17:33;;;;;;;24.50;13.78;;;;;;;6.18;73.47;100486.39;1774373;81;21865;-76
2021/10/19 02:20:39;;;;;;;31.42;16.52;;;;;;;6.16;73.50;100489.22;1773424;81;21938;-76
2021/10/19 02:23:47;;;;;;;37.42;16.15;;;;;;;6.14;73.62;100484.45;1774341;81;21090;-75
2021/10/19 02:26:53;;;;;;;36.75;17.62;;;;;;;6.14;73.84;100488.53;1774340;81;21204;-76
2021/10/19 02:29:59;;;;;;;28.80;16.00;;;;;;;6.12;74.07;100494.11;1774233;81;21168;-76
2021/10/19 02:33:04;;;;;;;26.68;14.93;;;;;;;6.15;74.27;100492.95;1773224;81;21302;-76
2021/10/19 02:36:10;;;;;;;33.45;16.30;;;;;;;6.17;74.44;100497.75;1773566;81;21188;-76
2021/10/19 02:39:15;;;;;;;30.20;17.20;;;;;;;6.19;74.51;100502.53;1774388;81;21671;-76
2021/10/19 02:42:20;;;;;;;30.20;16.62;;;;;;;6.22;74.58;100501.40;1774011;81;21298;-76
2021/10/19 02:45:25;;;;;;;26.12;15.93;;;;;;;6.24;74.55;100505.67;1772919;81;21950;-76
2021/10/19 02:48:33;;;;;;;34.15;16.97;;;;;;;6.25;74.56;100507.38;1772897;81;21462;-76
2021/10/19 02:51:39;;;;;;;31.25;17.05;;;;;;;6.24;74.66;100509.74;1773199;81;21311;-76
2021/10/19 02:54:45;;;;;;;31.60;16.57;;;;;;;6.24;74.74;100508.89;1774311;81;21328;-75
2021/10/19 02:57:55;;;;;;;30.40;17.27;;;;;;;6.25;74.84;100510.09;1774492;81;21342;-75
2021/10/19 03:01:01;;;;;;;32.67;17.45;;;;;;;6.25;74.88;100506.02;1773059;81;21188;-76
2021/10/19 03:04:08;;;;;;;32.00;17.62;;;;;;;6.26;74.90;100500.97;1774189;81;21164;-76
2021/10/19 03:07:14;;;;;;;32.83;17.70;;;;;;;6.27;74.92;100492.31;1797660;79;21207;-76
2021/10/19 03:10:19;;;;;;;28.55;16.25;;;;;;;6.29;74.99;100497.94;1755816;79;21231;-76
2021/10/19 03:13:28;;;;;;;35.17;17.40;;;;;;;6.31;75.02;100494.60;1739960;81;21718;-76
2021/10/19 03:16:35;;;;;;;29.98;17.05;;;;;;;6.31;75.03;100494.60;1769132;81;21327;-76
2021/10/19 03:19:41;;;;;;;28.52;15.85;;;;;;;6.32;75.03;100494.09;1780561;80;21208;-76
2021/10/19 03:22:46;;;;;;;31.50;15.95;;;;;;;6.31;74.96;100493.24;1754708;81;21347;-76
2021/10/19 03:25:52;;;;;;;30.80;16.55;;;;;;;6.31;74.93;100504.11;1755944;81;21298;-76
2021/10/19 03:28:59;;;;;;;27.65;17.27;;;;;;;6.27;74.95;100503.18;1784837;80;21715;-76
2021/10/19 03:32:04;;;;;;;37.23;17.25;;;;;;;6.22;75.06;100513.12;1723799;83;21168;-76
2021/10/19 03:35:10;;;;;;;36.73;17.52;;;;;;;6.17;75.19;100510.48;1749260;82;21879;-76
2021/10/19 03:38:15;;;;;;;29.85;17.20;;;;;;;6.11;75.44;100514.60;1730676;83;21616;-76
2021/10/19 03:41:13;;;;;;;26.87;16.80;;;;;;;6.07;75.56;100517.23;1745302;82;21720;-76
2021/10/19 03:44:19;;;;;;;31.65;17.75;;;;;;;6.03;75.66;100519.41;1773199;81;21327;-76
2021/10/19 03:47:26;;;;;;;32.75;17.45;;;;;;;6.04;75.73;100513.47;1751306;82;21374;-76
2021/10/19 03:50:31;;;;;;;30.55;17.77;;;;;;;6.03;75.79;100506.33;1767768;80;21283;-76
2021/10/19 03:53:37;;;;;;;29.00;17.20;;;;;;;6.04;75.89;100510.25;1721262;83;21284;-76
2021/10/19 03:56:43;;;;;;;24.40;15.43;;;;;;;6.04;75.91;100506.69;1734734;81;21903;-76
2021/10/19 03:59:49;;;;;;;38.48;18.45;;;;;;;6.03;75.95;100509.05;1796695;79;21267;-76
2021/10/19 04:02:57;;;;;;;31.20;17.52;;;;;;;5.99;76.06;100519.33;1778144;79;21204;-76
2021/10/19 04:06:03;;;;;;;33.45;18.23;;;;;;;5.95;76.37;100530.11;1764064;81;21192;-76
2021/10/19 04:09:09;;;;;;;47.40;21.55;;;;;;;5.92;76.61;100532.23;1801908;79;21228;-76
2021/10/19 04:12:16;;;;;;;33.55;20.12;;;;;;;5.85;76.96;100541.42;1763424;80;21258;-76
2021/10/19 04:15:22;;;;;;;34.27;20.08;;;;;;;5.80;77.16;100536.42;1805507;79;21851;-76
2021/10/19 04:18:27;;;;;;;30.05;17.25;;;;;;;5.74;77.44;100529.31;1771792;81;21275;-77
2021/10/19 04:21:32;;;;;;;29.65;18.10;;;;;;;5.68;77.78;100536.67;1774147;81;21719;-77
2021/10/19 04:24:37;;;;;;;31.65;17.15;;;;;;;5.60;78.14;100536.02;1774143;81;21298;-77
2021/10/19 04:27:43;;;;;;;39.10;19.57;;;;;;;5.56;78.47;100531.87;1772700;81;21188;-77
2021/10/19 04:30:50;;;;;;;32.85;18.27;;;;;;;5.56;78.59;100525.08;1805479;79;21216;-77
2021/10/19 04:33:59;;;;;;;30.62;17.75;;;;;;;5.58;78.67;100524.44;1771727;81;21275;-76
2021/10/19 04:37:04;;;;;;;34.18;18.17;;;;;;;5.60;78.71;100515.67;1759797;80;21375;-76
2021/10/19 04:40:09;;;;;;;35.90;20.77;;;;;;;5.61;78.75;100525.52;1761502;81;21180;-76
2021/10/19 04:43:15;;;;;;;30.35;18.05;;;;;;;5.62;78.80;100529.95;1761097;81;21353;-76
2021/10/19 04:46:20;;;;;;;31.70;17.52;;;;;;;5.63;78.90;100530.30;1761673;81;21878;-76
2021/10/19 04:49:26;;;;;;;37.05;20.12;;;;;;;5.67;78.90;100543.95;1761170;81;21322;-76
2021/10/19 04:52:31;;;;;;;36.33;18.77;;;;;;;5.66;79.03;100552.24;1763053;81;21393;-76
2021/10/19 04:55:36;;;;;;;36.42;20.05;;;;;;;5.69;79.09;100559.59;1760097;81;21271;-76
2021/10/19 04:58:42;;;;;;;43.38;21.55;;;;;;;5.71;79.24;100564.39;1761707;81;21723;-76
2021/10/19 05:01:47;;;;;;;33.58;19.95;;;;;;;5.70;79.40;100561.33;1760814;81;21333;-76
2021/10/19 05:04:54;;;;;;;41.98;22.13;;;;;;;5.72;79.68;100567.97;1754990;81;21168;-76
2021/10/19 05:08:00;;;;;;;41.75;22.10;;;;;;;5.72;79.94;100578.82;1754757;80;21656;-76
2021/10/19 05:11:05;;;;;;;35.03;20.25;;;;;;;5.72;80.19;100585.11;1754626;81;21732;-76
2021/10/19 05:14:10;;;;;;;35.55;20.57;;;;;;;5.76;80.21;100577.05;1754406;81;21240;-76
2021/10/19 05:17:16;;;;;;;41.40;21.00;;;;;;;5.76;80.33;100587.91;1749326;81;21866;-76
2021/10/19 05:20:23;;;;;;;35.78;21.70;;;;;;;5.77;80.42;100595.55;1754781;81;21632;-76
2021/10/19 05:23:28;;;;;;;40.40;20.40;;;;;;;5.75;80.46;100590.77;1750550;81;21393;-77
2021/10/19 05:26:34;;;;;;;40.10;21.80;;;;;;;5.72;80.52;100594.60;1751460;81;21208;-76
2021/10/19 05:29:41;;;;;;;43.23;21.80;;;;;;;5.70;80.58;100606.11;1752305;80;21188;-76
2021/10/19 05:32:47;;;;;;;47.27;23.07;;;;;;;5.68;80.85;100605.38;1750131;81;21226;-76
2021/10/19 05:35:53;;;;;;;44.10;22.73;;;;;;;5.72;81.09;100614.96;1783530;79;21810;-76
2021/10/19 05:39:00;;;;;;;37.00;21.23;;;;;;;5.84;81.21;100615.23;1784279;79;21219;-75
2021/10/19 05:42:05;;;;;;;39.80;23.27;;;;;;;6.02;81.34;100615.92;1788294;79;22388;-75
2021/10/19 05:45:12;;;;;;;39.80;22.30;;;;;;;6.19;81.21;100607.11;1781558;79;21814;-75
2021/10/19 05:48:16;;;;;;;34.83;21.55;;;;;;;6.35;81.02;100606.06;1781724;79;21622;-77
2021/10/19 05:51:22;;;;;;;40.30;20.75;;;;;;;6.47;80.62;100614.06;1790835;79;21913;-75
2021/10/19 05:54:27;;;;;;;54.65;24.18;;;;;;;6.51;80.12;100619.58;1783230;79;21306;-76
2021/10/19 05:57:33;;;;;;;43.28;22.93;;;;;;;6.58;80.02;100622.06;1782535;79;21212;-76
2021/10/19 06:00:38;;;;;;;44.80;22.25;;;;;;;6.70;79.91;100632.31;1780007;79;21321;-76
2021/10/19 06:03:45;;;;;;;38.98;24.00;;;;;;;6.79;79.43;100640.46;1782240;79;21224;-76
2021/10/19 06:07:02;;;;;;;40.83;23.02;;;;;;;6.85;79.15;100633.08;1780184;79;21293;-76
2021/10/19 06:10:07;;;;;;;52.88;24.60;;;;;;;6.90;78.88;100643.02;1783123;79;21291;-76
2021/10/19 06:13:13;;;;;;;42.90;22.87;;;;;;;6.95;78.74;100643.95;1786412;79;21156;-76
2021/10/19 06:16:19;;;;;;;41.33;23.62;;;;;;;7.00;78.60;100650.31;1772221;79;21753;-76
2021/10/19 06:19:24;;;;;;;41.30;23.47;;;;;;;7.07;78.59;100645.52;1783185;79;21306;-76
2021/10/19 06:22:30;;;;;;;41.85;24.40;;;;;;;7.16;78.50;100647.87;1782472;79;21282;-76
2021/10/19 06:25:36;;;;;;;38.83;23.27;;;;;;;7.21;78.04;100652.88;1784517;78;21192;-76
2021/10/19 06:28:42;;;;;;;40.00;22.67;;;;;;;7.22;77.99;100655.44;1782419;79;21592;-76
2021/10/19 06:31:47;;;;;;;36.53;22.52;;;;;;;7.20;78.02;100652.02;1777635;78;21319;-76
2021/10/19 06:34:53;;;;;;;45.05;23.35;;;;;;;7.18;78.07;100652.14;1780343;79;21306;-75
2021/10/19 06:37:58;;;;;;;48.63;25.08;;;;;;;7.17;78.25;100658.59;1784578;79;21859;-75
2021/10/19 06:41:03;;;;;;;47.40;23.02;;;;;;;7.20;78.36;100659.30;1772312;79;21334;-75
2021/10/19 06:44:09;;;;;;;45.23;25.10;;;;;;;7.27;78.41;100649.55;1785707;79;21811;-75
2021/10/19 06:47:16;;;;;;;41.68;24.52;;;;;;;7.44;78.64;100658.33;1780389;78;22505;-75
2021/10/19 06:50:20;;;;;;;39.78;23.02;;;;;;;7.59;78.24;100662.80;1783327;79;21854;-77
2021/10/19 06:53:26;;;;;;;37.33;20.72;;;;;;;7.68;77.59;100664.63;1785870;79;21307;-76
2021/10/19 06:56:32;;;;;;;37.33;20.88;;;;;;;7.68;77.25;100670.07;1786483;79;21357;-79
2021/10/19 06:59:39;;;;;;;39.83;20.82;;;;;;;7.71;77.14;100673.84;1787658;79;21188;-76
2021/10/19 07:02:43;;;;;;;33.25;18.52;;;;;;;7.71;76.71;100683.36;1786224;79;21870;-75
2021/10/19 07:05:50;;;;;;;35.00;18.80;;;;;;;7.69;76.50;100689.48;1786343;79;21290;-76
2021/10/19 07:08:55;;;;;;;35.55;20.15;;;;;;;7.65;76.30;100689.41;1789197;79;21285;-76
2021/10/19 07:12:03;;;;;;;35.70;19.00;;;;;;;7.62;76.32;100693.78;1784404;79;21308;-76
2021/10/19 07:15:09;;;;;;;19.07;12.10;;;;;;;7.59;75.89;100697.67;1785352;79;21290;-77
2021/10/19 07:18:14;;;;;;;21.20;12.53;;;;;;;7.60;74.76;100705.34;1781064;79;21949;-76
2021/10/19 07:21:19;;;;;;;20.62;11.40;;;;;;;7.60;74.20;100710.28;1782213;79;21180;-75
2021/10/19 07:24:24;;;;;;;13.15;8.48;;;;;;;7.64;73.64;100706.77;1786629;79;21287;-76
2021/10/19 07:27:29;;;;;;;9.40;6.70;;;;;;;7.66;71.98;100716.98;1789724;78;21481;-76
2021/10/19 07:30:35;;;;;;;19.35;9.28;;;;;;;7.72;71.34;100715.56;1788361;79;21313;-76
2021/10/19 07:33:42;;;;;;;16.57;11.00;;;;;;;7.81;71.01;100718.73;1789981;79;21290;-75
2021/10/19 07:36:48;;;;;;;17.37;10.35;;;;;;;7.84;70.57;100724.75;1790350;79;21843;-76
2021/10/19 07:39:47;;;;;;;20.97;12.53;;;;;;;7.87;70.87;100723.09;1796446;79;21196;-77
2021/10/19 07:42:55;;;;;;;22.13;14.68;;;;;;;8.00;70.80;100730.05;1786162;79;21877;-76
2021/10/19 07:46:01;;;;;;;20.70;13.78;;;;;;;8.10;67.96;100734.98;1791955;79;21172;-77
2021/10/19 07:49:08;;;;;;;25.95;16.93;;;;;;;8.12;66.99;100728.87;1792222;79;21256;-76
2021/10/19 07:52:14;;;;;;;30.05;16.42;;;;;;;8.16;66.93;100735.73;1797828;79;21310;-76
2021/10/19 07:55:20;;;;;;;28.50;17.55;;;;;;;8.29;65.95;100744.94;1789259;79;21292;-76
2021/10/19 07:58:27;;;;;;;24.92;12.63;;;;;;;8.38;65.42;100734.53;1783624;79;21291;-76
2021/10/19 08:01:32;;;;;;;15.93;9.20;;;;;;;8.45;65.48;100728.80;1762175;80;21350;-76
2021/10/19 08:04:37;;;;;;;16.30;8.58;;;;;;;8.57;64.10;100745.83;1762591;80;21851;-76
2021/10/19 08:07:43;;;;;;;13.95;9.35;;;;;;;8.63;63.80;100739.75;1755598;80;21314;-76
2021/10/19 08:10:54;;;;;;;17.37;10.95;;;;;;;8.69;63.40;100744.58;1721169;81;21949;-75
2021/10/19 08:13:59;;;;;;;20.48;12.07;;;;;;;8.75;64.34;100749.92;1788576;79;21289;-76
2021/10/19 08:17:07;;;;;;;17.32;9.25;;;;;;;8.72;64.53;100770.20;1784814;79;21695;-76
2021/10/19 08:20:14;;;;;;;11.95;6.30;;;;;;;8.66;64.38;100776.27;1782785;79;21290;-76
2021/10/19 08:23:21;;;;;;;12.63;6.17;;;;;;;8.57;64.16;100775.82;1780507;79;21313;-77
2021/10/19 08:26:30;;;;;;;14.30;7.03;;;;;;;8.49;64.21;100794.80;1778567;79;21697;-77
2021/10/19 08:29:35;;;;;;;10.05;6.30;;;;;;;8.38;64.49;100795.34;1782192;79;21306;-76
2021/10/19 08:32:43;;;;;;;13.72;6.85;;;;;;;8.31;64.59;100790.09;1759760;79;21298;-79
2021/10/19 08:35:50;;;;;;;11.48;6.65;;;;;;;8.31;65.14;100794.19;1780596;79;21250;-76
2021/10/19 08:39:02;;;;;;;11.73;7.47;;;;;;;8.41;65.07;100784.12;1786742;78;21648;-77
2021/10/19 08:42:06;;;;;;;13.85;8.50;;;;;;;8.51;63.98;100784.08;1779782;79;21314;-75
2021/10/19 08:45:11;;;;;;;13.45;8.38;;;;;;;8.57;63.69;100786.73;1780420;79;21349;-75
2021/10/19 08:48:29;;;;;;;13.85;8.08;;;;;;;8.64;63.69;100791.91;1792529;79;21337;-78
2021/10/19 08:51:40;;;;;;;9.95;6.08;;;;;;;8.75;63.34;100795.81;1789720;79;21285;-77
2021/10/19 08:54:45;;;;;;;18.77;5.45;;;;;;;8.84;61.14;100779.86;1789926;79;21205;-79
2021/10/19 08:58:02;;;;;;;12.47;4.50;;;;;;;8.90;59.95;100782.50;1781803;79;21329;-76
2021/10/19 09:01:17;;;;;;;9.50;4.08;;;;;;;9.00;59.63;100775.61;1778639;79;21222;-77
2021/10/19 09:04:22;;;;;;;11.68;4.47;;;;;;;9.12;57.71;100779.81;1779742;79;21314;-78
2021/10/19 09:07:34;;;;;;;10.40;5.25;;;;;;;9.23;57.30;100778.23;1783984;78;21265;-77
2021/10/19 09:10:45;;;;;;;11.85;5.28;;;;;;;9.32;57.02;100777.30;1785269;78;21315;-77
2021/10/19 09:14:01;;;;;;;8.98;4.40;;;;;;;9.35;56.59;100774.23;1789829;79;21211;-76
2021/10/19 09:17:06;;;;;;;8.45;5.70;;;;;;;9.35;56.73;100781.56;1784278;79;21306;-77
2021/10/19 09:20:21;;;;;;;9.10;5.58;;;;;;;9.41;54.83;100783.66;1783509;79;21254;-77
2021/10/19 09:23:28;;;;;;;5.75;4.28;;;;;;;9.50;54.02;100768.20;1786281;79;21223;-77
2021/10/19 09:26:40;;;;;;;10.38;4.97;;;;;;;9.62;53.78;100773.78;1765442;79;21984;-76
2021/10/19 09:29:56;;;;;;;9.80;4.08;;;;;;;9.66;53.65;100779.28;1786384;79;21362;-77
2021/10/19 09:33:03;;;;;;;11.55;5.97;;;;;;;9.62;52.89;100785.56;1785031;79;21325;-77
2021/10/19 09:36:08;;;;;;;15.80;7.50;;;;;;;9.54;53.15;100770.97;1785981;78;21274;-77
2021/10/19 09:39:14;;;;;;;12.10;6.08;;;;;;;9.58;53.03;100776.47;1764245;80;21778;-77
2021/10/19 09:42:35;;;;;;;7.72;5.40;;;;;;;9.67;53.31;100771.42;1751327;80;21224;-76
2021/10/19 09:45:42;;;;;;;13.90;5.72;;;;;;;9.72;51.91;100770.44;1748424;80;21368;-75
2021/10/19 09:48:48;;;;;;;7.10;5.00;;;;;;;9.65;47.94;100774.33;1747889;81;21171;-76
2021/10/19 09:51:54;;;;;;;9.30;5.08;;;;;;;9.48;48.69;100775.20;1746535;81;21313;-77
2021/10/19 09:54:59;;;;;;;11.08;5.37;;;;;;;9.40;49.11;100767.78;1745622;81;21342;-76
2021/10/19 09:58:05;;;;;;;8.65;4.87;;;;;;;9.51;47.99;100767.22;1746235;80;21871;-78
2021/10/19 10:01:12;;;;;;;17.62;8.20;;;;;;;9.65;47.85;100764.77;1751755;80;21322;-76
2021/10/19 10:04:17;;;;;;;13.40;7.80;;;;;;;9.76;46.54;100771.83;1727234;81;21158;-76
2021/10/19 10:07:29;;;;;;;16.62;7.55;;;;;;;9.80;46.91;100769.14;1753265;81;21313;-76
2021/10/19 10:10:29;;;;;;;16.77;9.55;;;;;;;9.83;47.77;100768.80;1763436;80;21313;-76
2021/10/19 10:13:35;;;;;;;13.93;6.72;;;;;;;9.90;47.80;100765.78;1778135;79;21322;-76
2021/10/19 10:16:55;;;;;;;9.35;5.67;;;;;;;9.99;48.23;100766.19;1789339;79;21293;-76
2021/10/19 10:20:14;;;;;;;12.43;5.20;;;;;;;10.07;45.52;100785.89;1728952;79;21233;-77
2021/10/19 10:23:34;;;;;;;14.95;6.60;;;;;;;9.94;45.35;100778.11;1788618;79;21451;-77
2021/10/19 10:26:42;;;;;;;11.10;6.10;;;;;;;9.79;46.21;100776.14;1781115;78;21224;-76
2021/10/19 10:30:09;;;;;;;13.05;6.62;;;;;;;9.73;47.83;100770.78;1779695;79;21194;-76
2021/10/19 10:33:16;;;;;;;13.45;7.65;;;;;;;9.75;48.82;100780.20;1736941;81;21154;-77
2021/10/19 10:36:22;;;;;;;10.65;6.37;;;;;;;9.67;48.08;100785.94;1733624;81;22200;-77
2021/10/19 10:39:28;;;;;;;13.65;6.50;;;;;;;9.54;48.01;100781.38;1702324;83;21326;-77
2021/10/19 10:42:45;;;;;;;16.30;6.55;;;;;;;9.45;47.91;100780.97;1694398;83;21339;-77
2021/10/19 10:45:50;;;;;;;11.80;5.87;;;;;;;9.48;47.18;100786.98;1688108;83;21370;-77
2021/10/19 10:48:58;;;;;;;7.90;4.97;;;;;;;9.61;46.60;100782.48;1705820;83;21977;-77
2021/10/19 10:52:30;;;;;;;9.03;5.10;;;;;;;9.76;46.02;100775.08;1705534;83;21276;-75
2021/10/19 10:55:42;;;;;;;13.03;5.60;;;;;;;9.91;45.07;100790.72;1700977;83;21217;-77
2021/10/19 10:58:49;;;;;;;10.63;5.05;;;;;;;10.08;44.21;100781.27;1705416;83;21241;-77
2021/10/19 11:02:14;;;;;;;10.48;5.15;;;;;;;10.15;44.73;100785.91;1720185;82;21314;-77
2021/10/19 11:05:21;;;;;;;7.35;4.50;;;;;;;10.16;44.30;100787.65;1707294;82;21201;-76
2021/10/19 11:08:38;;;;;;;10.05;5.20;;;;;;;10.09;44.39;100782.47;1723075;81;21290;-76
2021/10/19 11:11:45;;;;;;;13.60;4.72;;;;;;;10.06;43.71;100780.05;1717082;81;21352;-77
2021/10/19 11:14:51;;;;;;;12.43;5.60;;;;;;;10.11;43.05;100772.73;1716185;81;21166;-77
2021/10/19 11:17:58;;;;;;;7.70;5.03;;;;;;;10.22;43.49;100772.47;1721616;81;21183;-77
2021/10/19 11:21:04;;;;;;;12.33;4.92;;;;;;;10.30;43.59;100779.36;1715632;82;21299;-77
2021/10/19 11:24:10;;;;;;;18.80;4.75;;;;;;;10.33;43.35;100785.87;1722590;82;22358;-78
2021/10/19 11:27:17;;;;;;;13.25;5.50;;;;;;;10.21;43.14;100796.73;1722789;82;21595;-77
2021/10/19 11:30:23;;;;;;;8.50;4.42;;;;;;;10.07;43.25;100798.19;1724124;81;21222;-76
2021/10/19 11:33:28;;;;;;;8.03;4.50;;;;;;;9.94;43.11;100798.61;1719794;80;21583;-77
2021/10/19 11:36:35;;;;;;;10.50;5.37;;;;;;;9.85;42.30;100794.10;1733154;80;21339;-77
2021/10/19 11:39:40;;;;;;;11.65;5.65;;;;;;;9.79;42.65;100801.58;1736275;80;21777;-77
2021/10/19 11:42:59;;;;;;;8.05;5.25;;;;;;;9.72;42.42;100805.44;1741035;81;21176;-77
2021/10/19 11:46:05;;;;;;;5.63;3.37;;;;;;;9.72;42.35;100795.88;1751083;80;21363;-77
2021/10/19 11:49:15;;;;;;;6.05;3.33;;;;;;;9.80;42.28;100799.19;1739229;80;21190;-77
2021/10/19 11:52:20;;;;;;;4.50;2.87;;;;;;;9.93;42.28;100806.97;1752982;80;21720;-77
2021/10/19 11:55:26;;;;;;;6.12;3.67;;;;;;;10.02;41.79;100806.49;1722102;83;21319;-77
2021/10/19 11:58:31;;;;;;;5.30;2.62;;;;;;;10.10;42.40;100807.92;1732492;82;21340;-77
2021/10/19 12:01:52;;;;;;;7.00;2.87;;;;;;;10.12;41.95;100801.29;1715819;82;21399;-77
2021/10/19 12:04:58;;;;;;;5.80;3.67;;;;;;;10.10;41.05;100810.14;1753007;81;21204;-75
2021/10/19 12:08:05;;;;;;;10.78;3.83;;;;;;;10.08;40.72;100808.61;1733723;82;21317;-76
2021/10/19 12:11:18;;;;;;;6.12;2.92;;;;;;;10.08;40.79;100802.63;1741694;82;21392;-76
2021/10/19 12:14:24;;;;;;;8.43;4.12;;;;;;;10.14;40.10;100817.52;1739276;81;21332;-77
2021/10/19 12:17:30;;;;;;;10.25;3.40;;;;;;;10.13;40.60;100819.40;1735417;81;21131;-75
2021/10/19 12:20:41;;;;;;;6.85;3.20;;;;;;;10.10;40.25;100809.28;1757397;80;21373;-76
2021/10/19 12:23:57;;;;;;;3.47;1.72;;;;;;;10.06;39.90;100816.94;1723691;81;21265;-76
2021/10/19 12:27:13;;;;;;;4.45;2.83;;;;;;;10.01;40.14;100817.08;1734720;80;21289;-76
2021/10/19 12:30:23;;;;;;;5.97;3.00;;;;;;;10.04;40.77;100814.04;1751950;80;21386;-76
2021/10/19 12:33:30;;;;;;;5.37;3.05;;;;;;;10.06;40.76;100820.19;1752836;80;21154;-77
2021/10/19 12:36:41;;;;;;;5.17;2.22;;;;;;;10.03;39.56;100817.80;1710452;83;21596;-76
2021/10/19 12:39:49;;;;;;;5.67;2.95;;;;;;;9.96;37.84;100830.72;1758174;81;21182;-76
2021/10/19 12:42:56;;;;;;;4.40;2.55;;;;;;;9.89;37.74;100807.80;1756709;80;21304;-76
2021/10/19 12:46:01;;;;;;;5.70;2.42;;;;;;;9.86;38.06;100825.01;1760805;81;21329;-76
2021/10/19 12:49:07;;;;;;;3.70;1.87;;;;;;;9.82;37.60;100821.73;1693156;83;21192;-76
2021/10/19 12:52:13;;;;;;;7.10;2.05;;;;;;;9.81;39.29;100816.44;1702437;82;21323;-76
2021/10/19 12:55:19;;;;;;;5.17;1.90;;;;;;;9.78;40.13;100824.42;1729817;83;21303;-76
2021/10/19 12:58:25;;;;;;;3.15;2.15;;;;;;;9.76;39.76;100819.64;1729059;83;21527;-77
2021/10/19 13:01:30;;;;;;;3.65;2.27;;;;;;;9.72;39.52;100828.66;1715834;83;21845;-76
2021/10/19 13:04:37;;;;;;;6.28;1.82;;;;;;;9.68;38.93;100827.77;1731014;83;21307;-76
2021/10/19 13:07:45;;;;;;;6.47;1.40;;;;;;;9.66;37.96;100842.09;1728186;81;21340;-76
2021/10/19 13:10:51;;;;;;;3.35;1.90;;;;;;;9.61;36.26;100848.03;1727656;83;21216;-76
2021/10/19 13:13:55;;;;;;;5.10;2.10;;;;;;;9.56;37.58;100838.09;1725872;83;21651;-76
2021/10/19 13:17:03;;;;;;;3.85;1.85;;;;;;;9.50;38.64;100845.52;1720383;81;21271;-76
2021/10/19 13:20:08;;;;;;;4.35;1.90;;;;;;;9.45;38.52;100852.81;1709184;83;21362;-76
2021/10/19 13:23:13;;;;;;;5.17;2.00;;;;;;;9.41;38.49;100848.70;1707587;81;21405;-76
2021/10/19 13:26:20;;;;;;;5.10;2.02;;;;;;;9.37;38.88;100848.66;1722429;83;21315;-76
2021/10/19 13:29:25;;;;;;;4.65;2.25;;;;;;;9.31;39.37;100851.99;1689142;84;21209;-76
2021/10/19 13:32:31;;;;;;;3.52;2.08;;;;;;;9.28;39.69;100848.23;1700981;84;21330;-76
2021/10/19 13:35:36;;;;;;;4.30;2.15;;;;;;;9.26;40.20;100852.97;1679658;84;21365;-76
2021/10/19 13:38:41;;;;;;;3.55;2.05;;;;;;;9.22;40.46;100848.83;1686853;85;21410;-76
2021/10/19 13:41:57;;;;;;;6.83;2.70;;;;;;;9.18;40.64;100863.82;1665028;85;21377;-76
2021/10/19 13:45:04;;;;;;;8.78;3.72;;;;;;;9.12;40.57;100867.14;1716858;83;21174;-75
2021/10/19 13:48:11;;;;;;;4.60;2.72;;;;;;;9.05;40.64;100864.69;1713002;83;21866;-77
2021/10/19 13:51:16;;;;;;;5.72;2.22;;;;;;;8.99;40.20;100865.28;1657939;83;21209;-77
2021/10/19 13:54:21;;;;;;;4.28;2.50;;;;;;;8.93;40.41;100867.61;1689171;83;21358;-77
2021/10/19 13:57:27;;;;;;;4.08;2.17;;;;;;;8.85;40.56;100872.98;1716685;83;21833;-77
2021/10/19 14:00:32;;;;;;;5.53;3.17;;;;;;;8.81;40.77;100863.38;1716708;83;21892;-77
2021/10/19 14:03:38;;;;;;;7.62;2.90;;;;;;;8.76;40.58;100875.25;1714932;83;21310;-77
2021/10/19 14:06:44;;;;;;;5.45;2.70;;;;;;;8.69;40.76;100876.34;1716384;83;21313;-77
2021/10/19 14:09:50;;;;;;;5.17;2.62;;;;;;;8.64;41.01;100880.53;1716899;83;21722;-77
2021/10/19 14:12:55;;;;;;;8.73;2.70;;;;;;;8.55;41.33;100885.02;1715562;83;21293;-77
2021/10/19 14:16:01;;;;;;;7.55;3.55;;;;;;;8.49;42.00;100895.16;1716859;83;21318;-77
2021/10/19 14:19:07;;;;;;;8.48;4.35;;;;;;;8.44;42.20;100898.84;1716655;83;21203;-77
2021/10/19 14:22:12;;;;;;;9.23;5.28;;;;;;;8.40;41.62;100898.27;1715640;83;21876;-77
2021/10/19 14:25:18;;;;;;;19.80;5.50;;;;;;;8.34;40.85;100904.29;1715859;83;21937;-77